sensor_id;sensor_type;location;lat;lon;timestamp;P1;durP1;ratioP1;P2;durP2;ratioP2
54705;SDS011;40603;48.774;8.916;2023-03-01T00:01:48;25.27;;;12.00;;
54705;SDS011;40603;48.774;8.916;2023-03-01T00:04:13;19.88;;;10.98;;
54705;SDS011;40603;48.774;8.916;2023-03-01T00:06:39;21.48;;;11.20;;
54705;SDS011;40603;48.774;8.916;2023-03-01T00:09:04;26.88;;;12.73;;
54705;SDS011;40603;48.774;8.916;2023-03-01T00:11:31;20.90;;;11.55;;
54705;SDS011;40603;48.774;8.916;2023-03-01T00:13:58;22.98;;;10.98;;
54705;SDS011;40603;48.774;8.916;2023-03-01T00:16:27;22.50;;;11.43;;
54705;SDS011;40603;48.774;8.916;2023-03-01T00:18:54;24.23;;;12.10;;
54705;SDS011;40603;48.774;8.916;2023-03-01T00:21:20;22.45;;;11.63;;
54705;SDS011;40603;48.774;8.916;2023-03-01T00:23:47;22.33;;;11.63;;
54705;SDS011;40603;48.774;8.916;2023-03-01T00:26:13;23.40;;;11.50;;
54705;SDS011;40603;48.774;8.916;2023-03-01T00:28:39;23.35;;;11.88;;
54705;SDS011;40603;48.774;8.916;2023-03-01T00:31:23;28.50;;;12.68;;
54705;SDS011;40603;48.774;8.916;2023-03-01T00:33:53;22.88;;;11.02;;
54705;SDS011;40603;48.774;8.916;2023-03-01T00:36:23;26.92;;;11.50;;
54705;SDS011;40603;48.774;8.916;2023-03-01T00:38:51;21.48;;;11.82;;
54705;SDS011;40603;48.774;8.916;2023-03-01T00:41:17;22.67;;;11.05;;
54705;SDS011;40603;48.774;8.916;2023-03-01T00:43:44;28.05;;;12.13;;
54705;SDS011;40603;48.774;8.916;2023-03-01T00:46:11;24.10;;;11.35;;
54705;SDS011;40603;48.774;8.916;2023-03-01T00:48:37;23.20;;;11.32;;
54705;SDS011;40603;48.774;8.916;2023-03-01T00:51:06;24.13;;;11.95;;
54705;SDS011;40603;48.774;8.916;2023-03-01T00:55:58;20.77;;;10.45;;
54705;SDS011;40603;48.774;8.916;2023-03-01T00:58:24;20.80;;;11.13;;
54705;SDS011;40603;48.774;8.916;2023-03-01T01:00:49;22.20;;;11.52;;
54705;SDS011;40603;48.774;8.916;2023-03-01T01:03:15;23.63;;;11.68;;
54705;SDS011;40603;48.774;8.916;2023-03-01T01:05:40;26.35;;;12.82;;
54705;SDS011;40603;48.774;8.916;2023-03-01T01:08:05;25.10;;;12.35;;
54705;SDS011;40603;48.774;8.916;2023-03-01T01:10:33;28.25;;;12.65;;
54705;SDS011;40603;48.774;8.916;2023-03-01T01:12:59;27.73;;;11.60;;
54705;SDS011;40603;48.774;8.916;2023-03-01T01:15:24;29.60;;;13.18;;
54705;SDS011;40603;48.774;8.916;2023-03-01T01:17:49;24.38;;;11.95;;
54705;SDS011;40603;48.774;8.916;2023-03-01T01:20:15;22.02;;;11.13;;
54705;SDS011;40603;48.774;8.916;2023-03-01T01:22:40;19.98;;;10.98;;
54705;SDS011;40603;48.774;8.916;2023-03-01T01:25:05;19.45;;;10.90;;
54705;SDS011;40603;48.774;8.916;2023-03-01T01:27:31;19.98;;;10.55;;
54705;SDS011;40603;48.774;8.916;2023-03-01T01:29:56;22.42;;;10.85;;
54705;SDS011;40603;48.774;8.916;2023-03-01T01:32:22;26.23;;;11.88;;
54705;SDS011;40603;48.774;8.916;2023-03-01T01:34:47;27.05;;;11.63;;
54705;SDS011;40603;48.774;8.916;2023-03-01T01:37:12;27.08;;;11.32;;
54705;SDS011;40603;48.774;8.916;2023-03-01T01:39:37;28.42;;;13.18;;
54705;SDS011;40603;48.774;8.916;2023-03-01T01:42:03;28.00;;;12.00;;
54705;SDS011;40603;48.774;8.916;2023-03-01T01:44:29;24.25;;;11.70;;
54705;SDS011;40603;48.774;8.916;2023-03-01T01:47:01;19.80;;;10.82;;
54705;SDS011;40603;48.774;8.916;2023-03-01T01:49:29;22.90;;;10.93;;
54705;SDS011;40603;48.774;8.916;2023-03-01T01:52:11;23.42;;;12.02;;
54705;SDS011;40603;48.774;8.916;2023-03-01T01:54:46;21.40;;;10.98;;
54705;SDS011;40603;48.774;8.916;2023-03-01T01:57:22;23.42;;;12.00;;
54705;SDS011;40603;48.774;8.916;2023-03-01T01:59:51;24.13;;;11.82;;
54705;SDS011;40603;48.774;8.916;2023-03-01T02:02:21;28.35;;;12.20;;
54705;SDS011;40603;48.774;8.916;2023-03-01T02:04:47;26.02;;;10.88;;
54705;SDS011;40603;48.774;8.916;2023-03-01T02:07:17;22.88;;;11.30;;
54705;SDS011;40603;48.774;8.916;2023-03-01T02:09:46;21.35;;;10.65;;
54705;SDS011;40603;48.774;8.916;2023-03-01T02:12:13;21.25;;;11.88;;
54705;SDS011;40603;48.774;8.916;2023-03-01T02:14:39;27.77;;;12.63;;
54705;SDS011;40603;48.774;8.916;2023-03-01T02:17:05;21.10;;;11.15;;
54705;SDS011;40603;48.774;8.916;2023-03-01T02:22:31;26.27;;;12.20;;
54705;SDS011;40603;48.774;8.916;2023-03-01T02:25:06;22.87;;;12.03;;
54705;SDS011;40603;48.774;8.916;2023-03-01T02:27:53;20.52;;;10.75;;
54705;SDS011;40603;48.774;8.916;2023-03-01T02:30:30;24.05;;;12.10;;
54705;SDS011;40603;48.774;8.916;2023-03-01T02:32:56;19.70;;;10.38;;
54705;SDS011;40603;48.774;8.916;2023-03-01T02:35:27;23.30;;;11.93;;
54705;SDS011;40603;48.774;8.916;2023-03-01T02:37:56;26.55;;;13.10;;
54705;SDS011;40603;48.774;8.916;2023-03-01T02:40:22;26.63;;;11.82;;
54705;SDS011;40603;48.774;8.916;2023-03-01T02:42:52;21.48;;;10.75;;
54705;SDS011;40603;48.774;8.916;2023-03-01T02:45:19;22.70;;;11.52;;
54705;SDS011;40603;48.774;8.916;2023-03-01T02:47:45;20.83;;;11.43;;
54705;SDS011;40603;48.774;8.916;2023-03-01T02:53:08;26.20;;;12.65;;
54705;SDS011;40603;48.774;8.916;2023-03-01T02:55:47;23.33;;;12.27;;
54705;SDS011;40603;48.774;8.916;2023-03-01T02:58:13;24.88;;;11.50;;
54705;SDS011;40603;48.774;8.916;2023-03-01T03:00:39;22.00;;;11.38;;
54705;SDS011;40603;48.774;8.916;2023-03-01T03:03:10;21.75;;;12.00;;
54705;SDS011;40603;48.774;8.916;2023-03-01T03:05:46;25.00;;;11.82;;
54705;SDS011;40603;48.774;8.916;2023-03-01T03:08:11;29.27;;;13.15;;
54705;SDS011;40603;48.774;8.916;2023-03-01T03:10:38;25.20;;;12.18;;
54705;SDS011;40603;48.774;8.916;2023-03-01T03:13:13;26.75;;;12.52;;
54705;SDS011;40603;48.774;8.916;2023-03-01T03:15:40;26.00;;;12.50;;
54705;SDS011;40603;48.774;8.916;2023-03-01T03:18:08;24.17;;;12.43;;
54705;SDS011;40603;48.774;8.916;2023-03-01T03:20:34;24.13;;;11.95;;
54705;SDS011;40603;48.774;8.916;2023-03-01T03:23:01;26.83;;;12.05;;
54705;SDS011;40603;48.774;8.916;2023-03-01T03:25:27;24.10;;;12.77;;
54705;SDS011;40603;48.774;8.916;2023-03-01T03:27:54;23.30;;;11.18;;
54705;SDS011;40603;48.774;8.916;2023-03-01T03:30:30;22.63;;;11.25;;
54705;SDS011;40603;48.774;8.916;2023-03-01T03:32:56;34.70;;;12.50;;
54705;SDS011;40603;48.774;8.916;2023-03-01T03:35:23;22.60;;;11.35;;
54705;SDS011;40603;48.774;8.916;2023-03-01T03:37:51;23.33;;;10.93;;
54705;SDS011;40603;48.774;8.916;2023-03-01T03:40:49;23.90;;;12.98;;
54705;SDS011;40603;48.774;8.916;2023-03-01T03:43:17;27.73;;;12.27;;
54705;SDS011;40603;48.774;8.916;2023-03-01T03:45:47;24.45;;;12.48;;
54705;SDS011;40603;48.774;8.916;2023-03-01T03:48:14;23.98;;;11.90;;
54705;SDS011;40603;48.774;8.916;2023-03-01T03:50:40;24.38;;;12.57;;
54705;SDS011;40603;48.774;8.916;2023-03-01T03:53:06;24.77;;;12.88;;
54705;SDS011;40603;48.774;8.916;2023-03-01T03:55:33;26.05;;;13.10;;
54705;SDS011;40603;48.774;8.916;2023-03-01T03:57:58;25.80;;;13.30;;
54705;SDS011;40603;48.774;8.916;2023-03-01T04:00:27;27.10;;;12.38;;
54705;SDS011;40603;48.774;8.916;2023-03-01T04:02:53;30.45;;;13.23;;
54705;SDS011;40603;48.774;8.916;2023-03-01T04:05:21;23.38;;;11.68;;
54705;SDS011;40603;48.774;8.916;2023-03-01T04:07:46;24.70;;;14.00;;
54705;SDS011;40603;48.774;8.916;2023-03-01T04:10:13;25.38;;;13.63;;
54705;SDS011;40603;48.774;8.916;2023-03-01T04:12:40;28.17;;;13.32;;
54705;SDS011;40603;48.774;8.916;2023-03-01T04:15:08;27.40;;;12.43;;
54705;SDS011;40603;48.774;8.916;2023-03-01T04:17:43;26.75;;;12.88;;
54705;SDS011;40603;48.774;8.916;2023-03-01T04:22:37;23.83;;;12.38;;
54705;SDS011;40603;48.774;8.916;2023-03-01T04:25:02;26.58;;;13.40;;
54705;SDS011;40603;48.774;8.916;2023-03-01T04:27:29;25.08;;;13.07;;
54705;SDS011;40603;48.774;8.916;2023-03-01T04:29:55;24.77;;;13.13;;
54705;SDS011;40603;48.774;8.916;2023-03-01T04:32:20;27.83;;;13.80;;
54705;SDS011;40603;48.774;8.916;2023-03-01T04:34:45;24.20;;;12.55;;
54705;SDS011;40603;48.774;8.916;2023-03-01T04:37:10;24.73;;;12.52;;
54705;SDS011;40603;48.774;8.916;2023-03-01T04:39:36;26.25;;;12.88;;
54705;SDS011;40603;48.774;8.916;2023-03-01T04:42:10;30.02;;;13.65;;
54705;SDS011;40603;48.774;8.916;2023-03-01T04:44:35;24.15;;;12.35;;
54705;SDS011;40603;48.774;8.916;2023-03-01T04:47:01;24.20;;;12.95;;
54705;SDS011;40603;48.774;8.916;2023-03-01T04:49:26;30.83;;;13.60;;
54705;SDS011;40603;48.774;8.916;2023-03-01T04:51:51;25.65;;;13.57;;
54705;SDS011;40603;48.774;8.916;2023-03-01T04:54:16;30.05;;;14.50;;
54705;SDS011;40603;48.774;8.916;2023-03-01T04:56:42;26.55;;;13.55;;
54705;SDS011;40603;48.774;8.916;2023-03-01T04:59:07;28.88;;;13.25;;
54705;SDS011;40603;48.774;8.916;2023-03-01T05:01:35;27.63;;;14.02;;
54705;SDS011;40603;48.774;8.916;2023-03-01T05:04:00;25.25;;;13.45;;
54705;SDS011;40603;48.774;8.916;2023-03-01T05:06:28;34.80;;;15.63;;
54705;SDS011;40603;48.774;8.916;2023-03-01T05:08:53;28.27;;;14.40;;
54705;SDS011;40603;48.774;8.916;2023-03-01T05:11:18;34.30;;;14.93;;
54705;SDS011;40603;48.774;8.916;2023-03-01T05:13:44;23.67;;;13.32;;
54705;SDS011;40603;48.774;8.916;2023-03-01T05:16:09;28.08;;;14.15;;
54705;SDS011;40603;48.774;8.916;2023-03-01T05:18:36;26.55;;;12.88;;
54705;SDS011;40603;48.774;8.916;2023-03-01T05:21:02;28.00;;;14.60;;
54705;SDS011;40603;48.774;8.916;2023-03-01T05:23:29;22.73;;;12.50;;
54705;SDS011;40603;48.774;8.916;2023-03-01T05:25:59;27.67;;;13.95;;
54705;SDS011;40603;48.774;8.916;2023-03-01T05:28:25;27.08;;;13.77;;
54705;SDS011;40603;48.774;8.916;2023-03-01T05:30:51;28.58;;;14.18;;
54705;SDS011;40603;48.774;8.916;2023-03-01T05:33:16;29.05;;;13.75;;
54705;SDS011;40603;48.774;8.916;2023-03-01T05:35:43;29.25;;;13.70;;
54705;SDS011;40603;48.774;8.916;2023-03-01T05:38:09;27.05;;;13.55;;
54705;SDS011;40603;48.774;8.916;2023-03-01T05:40:38;27.75;;;13.60;;
54705;SDS011;40603;48.774;8.916;2023-03-01T05:43:03;23.38;;;13.18;;
54705;SDS011;40603;48.774;8.916;2023-03-01T05:45:30;24.75;;;13.98;;
54705;SDS011;40603;48.774;8.916;2023-03-01T05:47:57;24.25;;;13.38;;
54705;SDS011;40603;48.774;8.916;2023-03-01T05:50:24;28.95;;;13.82;;
54705;SDS011;40603;48.774;8.916;2023-03-01T05:52:52;27.08;;;14.48;;
54705;SDS011;40603;48.774;8.916;2023-03-01T05:55:22;30.08;;;14.63;;
54705;SDS011;40603;48.774;8.916;2023-03-01T05:57:48;32.10;;;13.15;;
54705;SDS011;40603;48.774;8.916;2023-03-01T06:00:15;26.20;;;14.13;;
54705;SDS011;40603;48.774;8.916;2023-03-01T06:02:41;30.00;;;14.50;;
54705;SDS011;40603;48.774;8.916;2023-03-01T06:05:07;30.73;;;14.07;;
54705;SDS011;40603;48.774;8.916;2023-03-01T06:07:34;26.45;;;13.90;;
54705;SDS011;40603;48.774;8.916;2023-03-01T06:10:00;26.25;;;13.95;;
54705;SDS011;40603;48.774;8.916;2023-03-01T06:12:25;30.52;;;14.65;;
54705;SDS011;40603;48.774;8.916;2023-03-01T06:14:50;25.80;;;13.55;;
54705;SDS011;40603;48.774;8.916;2023-03-01T06:17:16;27.98;;;14.38;;
54705;SDS011;40603;48.774;8.916;2023-03-01T06:19:41;29.08;;;13.88;;
54705;SDS011;40603;48.774;8.916;2023-03-01T06:22:06;25.92;;;14.20;;
54705;SDS011;40603;48.774;8.916;2023-03-01T06:24:32;26.92;;;14.20;;
54705;SDS011;40603;48.774;8.916;2023-03-01T06:26:58;33.65;;;13.68;;
54705;SDS011;40603;48.774;8.916;2023-03-01T06:29:23;32.40;;;14.40;;
54705;SDS011;40603;48.774;8.916;2023-03-01T06:31:48;27.05;;;13.13;;
54705;SDS011;40603;48.774;8.916;2023-03-01T06:34:14;30.02;;;13.90;;
54705;SDS011;40603;48.774;8.916;2023-03-01T06:36:39;26.38;;;14.05;;
54705;SDS011;40603;48.774;8.916;2023-03-01T06:39:05;24.67;;;13.63;;
54705;SDS011;40603;48.774;8.916;2023-03-01T06:41:31;25.25;;;13.90;;
54705;SDS011;40603;48.774;8.916;2023-03-01T06:43:56;25.10;;;13.98;;
54705;SDS011;40603;48.774;8.916;2023-03-01T06:46:21;26.23;;;13.07;;
54705;SDS011;40603;48.774;8.916;2023-03-01T06:48:47;27.45;;;14.88;;
54705;SDS011;40603;48.774;8.916;2023-03-01T06:51:12;24.60;;;13.25;;
54705;SDS011;40603;48.774;8.916;2023-03-01T06:53:37;25.33;;;12.93;;
54705;SDS011;40603;48.774;8.916;2023-03-01T06:56:03;25.02;;;12.90;;
54705;SDS011;40603;48.774;8.916;2023-03-01T06:58:28;29.27;;;13.82;;
54705;SDS011;40603;48.774;8.916;2023-03-01T07:00:53;26.38;;;13.35;;
54705;SDS011;40603;48.774;8.916;2023-03-01T07:03:19;27.80;;;14.27;;
54705;SDS011;40603;48.774;8.916;2023-03-01T07:05:44;28.52;;;12.82;;
54705;SDS011;40603;48.774;8.916;2023-03-01T07:08:10;27.33;;;13.60;;
54705;SDS011;40603;48.774;8.916;2023-03-01T07:10:35;24.67;;;13.75;;
54705;SDS011;40603;48.774;8.916;2023-03-01T07:13:00;34.95;;;13.48;;
54705;SDS011;40603;48.774;8.916;2023-03-01T07:15:26;25.42;;;14.18;;
54705;SDS011;40603;48.774;8.916;2023-03-01T07:17:52;27.67;;;14.48;;
54705;SDS011;40603;48.774;8.916;2023-03-01T07:20:18;27.20;;;13.88;;
54705;SDS011;40603;48.774;8.916;2023-03-01T07:22:43;31.13;;;14.27;;
54705;SDS011;40603;48.774;8.916;2023-03-01T07:25:09;26.05;;;13.25;;
54705;SDS011;40603;48.774;8.916;2023-03-01T07:27:35;26.33;;;13.95;;
54705;SDS011;40603;48.774;8.916;2023-03-01T07:30:01;28.20;;;14.38;;
54705;SDS011;40603;48.774;8.916;2023-03-01T07:32:26;28.75;;;13.60;;
54705;SDS011;40603;48.774;8.916;2023-03-01T07:34:51;27.63;;;14.13;;
54705;SDS011;40603;48.774;8.916;2023-03-01T07:37:17;29.88;;;14.65;;
54705;SDS011;40603;48.774;8.916;2023-03-01T07:39:42;31.80;;;14.07;;
54705;SDS011;40603;48.774;8.916;2023-03-01T07:42:07;24.45;;;13.32;;
54705;SDS011;40603;48.774;8.916;2023-03-01T07:44:33;26.85;;;13.40;;
54705;SDS011;40603;48.774;8.916;2023-03-01T07:46:59;26.90;;;13.70;;
54705;SDS011;40603;48.774;8.916;2023-03-01T07:49:25;57.03;;;22.38;;
54705;SDS011;40603;48.774;8.916;2023-03-01T07:51:51;33.97;;;16.55;;
54705;SDS011;40603;48.774;8.916;2023-03-01T07:54:16;26.85;;;14.27;;
54705;SDS011;40603;48.774;8.916;2023-03-01T07:56:42;34.55;;;13.68;;
54705;SDS011;40603;48.774;8.916;2023-03-01T07:59:08;25.83;;;13.80;;
54705;SDS011;40603;48.774;8.916;2023-03-01T08:01:33;27.75;;;14.25;;
54705;SDS011;40603;48.774;8.916;2023-03-01T08:03:58;27.42;;;15.10;;
54705;SDS011;40603;48.774;8.916;2023-03-01T08:06:24;30.85;;;13.88;;
54705;SDS011;40603;48.774;8.916;2023-03-01T08:08:49;26.90;;;14.20;;
54705;SDS011;40603;48.774;8.916;2023-03-01T08:11:15;29.02;;;14.25;;
54705;SDS011;40603;48.774;8.916;2023-03-01T08:13:41;30.63;;;14.95;;
54705;SDS011;40603;48.774;8.916;2023-03-01T08:16:09;31.35;;;15.70;;
54705;SDS011;40603;48.774;8.916;2023-03-01T08:18:35;27.42;;;14.82;;
54705;SDS011;40603;48.774;8.916;2023-03-01T08:21:04;35.35;;;15.00;;
54705;SDS011;40603;48.774;8.916;2023-03-01T08:23:34;31.40;;;15.02;;
54705;SDS011;40603;48.774;8.916;2023-03-01T08:26:07;31.63;;;15.05;;
54705;SDS011;40603;48.774;8.916;2023-03-01T08:28:33;29.30;;;14.63;;
54705;SDS011;40603;48.774;8.916;2023-03-01T08:30:58;26.52;;;14.70;;
54705;SDS011;40603;48.774;8.916;2023-03-01T08:33:23;31.42;;;14.82;;
54705;SDS011;40603;48.774;8.916;2023-03-01T08:35:49;41.53;;;17.52;;
54705;SDS011;40603;48.774;8.916;2023-03-01T08:38:14;30.98;;;15.18;;
54705;SDS011;40603;48.774;8.916;2023-03-01T08:40:39;38.67;;;15.05;;
54705;SDS011;40603;48.774;8.916;2023-03-01T08:43:05;31.98;;;14.15;;
54705;SDS011;40603;48.774;8.916;2023-03-01T08:45:30;30.10;;;14.70;;
54705;SDS011;40603;48.774;8.916;2023-03-01T08:47:55;25.98;;;14.18;;
54705;SDS011;40603;48.774;8.916;2023-03-01T08:50:20;36.28;;;13.82;;
54705;SDS011;40603;48.774;8.916;2023-03-01T08:52:46;28.67;;;14.60;;
54705;SDS011;40603;48.774;8.916;2023-03-01T08:55:11;28.60;;;15.13;;
54705;SDS011;40603;48.774;8.916;2023-03-01T08:57:36;30.17;;;15.82;;
54705;SDS011;40603;48.774;8.916;2023-03-01T09:00:02;30.25;;;14.52;;
54705;SDS011;40603;48.774;8.916;2023-03-01T09:02:28;27.67;;;14.50;;
54705;SDS011;40603;48.774;8.916;2023-03-01T09:04:53;31.08;;;15.32;;
54705;SDS011;40603;48.774;8.916;2023-03-01T09:07:18;29.73;;;15.10;;
54705;SDS011;40603;48.774;8.916;2023-03-01T09:09:44;28.38;;;14.77;;
54705;SDS011;40603;48.774;8.916;2023-03-01T09:12:09;35.33;;;16.73;;
54705;SDS011;40603;48.774;8.916;2023-03-01T09:14:34;30.25;;;15.77;;
54705;SDS011;40603;48.774;8.916;2023-03-01T09:17:02;30.50;;;15.55;;
54705;SDS011;40603;48.774;8.916;2023-03-01T09:19:28;34.63;;;16.17;;
54705;SDS011;40603;48.774;8.916;2023-03-01T09:21:53;29.33;;;15.77;;
54705;SDS011;40603;48.774;8.916;2023-03-01T09:24:20;32.53;;;14.90;;
54705;SDS011;40603;48.774;8.916;2023-03-01T09:26:46;32.53;;;15.98;;
54705;SDS011;40603;48.774;8.916;2023-03-01T09:29:12;29.23;;;14.88;;
54705;SDS011;40603;48.774;8.916;2023-03-01T09:31:38;32.60;;;15.98;;
54705;SDS011;40603;48.774;8.916;2023-03-01T09:34:04;28.27;;;14.77;;
54705;SDS011;40603;48.774;8.916;2023-03-01T09:36:30;28.27;;;15.00;;
54705;SDS011;40603;48.774;8.916;2023-03-01T09:38:55;31.17;;;15.18;;
54705;SDS011;40603;48.774;8.916;2023-03-01T09:42:03;28.60;;;14.40;;
54705;SDS011;40603;48.774;8.916;2023-03-01T09:46:55;30.08;;;15.60;;
54705;SDS011;40603;48.774;8.916;2023-03-01T09:49:22;28.90;;;15.02;;
54705;SDS011;40603;48.774;8.916;2023-03-01T09:51:57;28.42;;;14.50;;
54705;SDS011;40603;48.774;8.916;2023-03-01T09:54:29;29.88;;;15.43;;
54705;SDS011;40603;48.774;8.916;2023-03-01T09:57:04;31.75;;;14.68;;
54705;SDS011;40603;48.774;8.916;2023-03-01T10:05:41;27.33;;;13.77;;
54705;SDS011;40603;48.774;8.916;2023-03-01T10:11:01;24.23;;;13.80;;
54705;SDS011;40603;48.774;8.916;2023-03-01T10:16:05;31.65;;;15.80;;
54705;SDS011;40603;48.774;8.916;2023-03-01T10:18:37;29.52;;;14.82;;
54705;SDS011;40603;48.774;8.916;2023-03-01T10:21:07;31.10;;;15.98;;
54705;SDS011;40603;48.774;8.916;2023-03-01T10:23:37;25.85;;;14.55;;
54705;SDS011;40603;48.774;8.916;2023-03-01T10:26:12;26.65;;;13.93;;
54705;SDS011;40603;48.774;8.916;2023-03-01T10:29:03;27.58;;;15.35;;
54705;SDS011;40603;48.774;8.916;2023-03-01T10:34:08;27.15;;;14.68;;
54705;SDS011;40603;48.774;8.916;2023-03-01T10:36:36;35.97;;;15.00;;
54705;SDS011;40603;48.774;8.916;2023-03-01T10:39:05;31.15;;;15.00;;
54705;SDS011;40603;48.774;8.916;2023-03-01T10:41:37;26.98;;;14.40;;
54705;SDS011;40603;48.774;8.916;2023-03-01T10:44:34;26.85;;;14.25;;
54705;SDS011;40603;48.774;8.916;2023-03-01T10:47:12;27.52;;;14.45;;
54705;SDS011;40603;48.774;8.916;2023-03-01T10:49:39;29.45;;;16.10;;
54705;SDS011;40603;48.774;8.916;2023-03-01T10:52:17;29.75;;;14.77;;
54705;SDS011;40603;48.774;8.916;2023-03-01T10:54:51;26.33;;;14.48;;
54705;SDS011;40603;48.774;8.916;2023-03-01T10:57:27;31.00;;;14.88;;
54705;SDS011;40603;48.774;8.916;2023-03-01T11:00:05;28.92;;;15.23;;
54705;SDS011;40603;48.774;8.916;2023-03-01T11:02:45;28.98;;;15.07;;
54705;SDS011;40603;48.774;8.916;2023-03-01T11:07:46;24.23;;;13.38;;
54705;SDS011;40603;48.774;8.916;2023-03-01T11:10:20;29.77;;;14.93;;
54705;SDS011;40603;48.774;8.916;2023-03-01T11:12:51;26.52;;;14.70;;
54705;SDS011;40603;48.774;8.916;2023-03-01T11:15:24;26.10;;;14.02;;
54705;SDS011;40603;48.774;8.916;2023-03-01T11:17:51;30.83;;;14.35;;
54705;SDS011;40603;48.774;8.916;2023-03-01T11:20:23;28.23;;;14.68;;
54705;SDS011;40603;48.774;8.916;2023-03-01T11:22:58;29.85;;;16.15;;
54705;SDS011;40603;48.774;8.916;2023-03-01T11:25:27;31.42;;;15.00;;
54705;SDS011;40603;48.774;8.916;2023-03-01T11:27:55;27.83;;;14.32;;
54705;SDS011;40603;48.774;8.916;2023-03-01T11:36:00;23.58;;;13.55;;
54705;SDS011;40603;48.774;8.916;2023-03-01T11:38:27;27.15;;;14.95;;
54705;SDS011;40603;48.774;8.916;2023-03-01T11:41:00;32.45;;;14.15;;
54705;SDS011;40603;48.774;8.916;2023-03-01T11:43:35;27.05;;;14.82;;
54705;SDS011;40603;48.774;8.916;2023-03-01T11:46:20;26.83;;;14.80;;
54705;SDS011;40603;48.774;8.916;2023-03-01T12:00:15;29.38;;;14.30;;
54705;SDS011;40603;48.774;8.916;2023-03-01T12:13:56;27.20;;;14.18;;
54705;SDS011;40603;48.774;8.916;2023-03-01T12:22:02;23.15;;;12.82;;
54705;SDS011;40603;48.774;8.916;2023-03-01T12:24:41;24.98;;;13.60;;
54705;SDS011;40603;48.774;8.916;2023-03-01T12:38:37;28.15;;;13.18;;
54705;SDS011;40603;48.774;8.916;2023-03-01T12:51:29;23.38;;;13.20;;
54705;SDS011;40603;48.774;8.916;2023-03-01T12:53:57;25.10;;;12.95;;
54705;SDS011;40603;48.774;8.916;2023-03-01T12:56:25;21.85;;;12.27;;
54705;SDS011;40603;48.774;8.916;2023-03-01T13:04:52;26.10;;;13.75;;
54705;SDS011;40603;48.774;8.916;2023-03-01T13:07:58;28.33;;;13.73;;
54705;SDS011;40603;48.774;8.916;2023-03-01T13:13:41;21.63;;;12.25;;
54705;SDS011;40603;48.774;8.916;2023-03-01T13:15:49;22.77;;;12.50;;
54705;SDS011;40603;48.774;8.916;2023-03-01T13:23:13;27.20;;;12.98;;
54705;SDS011;40603;48.774;8.916;2023-03-01T13:26:06;20.08;;;13.10;;
54705;SDS011;40603;48.774;8.916;2023-03-01T13:36:07;24.65;;;12.90;;
54705;SDS011;40603;48.774;8.916;2023-03-01T13:38:37;23.13;;;13.52;;
54705;SDS011;40603;48.774;8.916;2023-03-01T13:41:11;22.40;;;13.15;;
54705;SDS011;40603;48.774;8.916;2023-03-01T13:43:40;22.35;;;12.70;;
54705;SDS011;40603;48.774;8.916;2023-03-01T13:46:08;22.40;;;13.45;;
54705;SDS011;40603;48.774;8.916;2023-03-01T13:48:36;26.33;;;14.70;;
54705;SDS011;40603;48.774;8.916;2023-03-01T13:51:03;21.25;;;13.85;;
54705;SDS011;40603;48.774;8.916;2023-03-01T13:53:31;24.52;;;13.25;;
54705;SDS011;40603;48.774;8.916;2023-03-01T13:56:00;25.80;;;13.98;;
54705;SDS011;40603;48.774;8.916;2023-03-01T13:58:32;23.75;;;13.90;;
54705;SDS011;40603;48.774;8.916;2023-03-01T14:01:00;24.65;;;13.95;;
54705;SDS011;40603;48.774;8.916;2023-03-01T14:03:28;24.92;;;13.75;;
54705;SDS011;40603;48.774;8.916;2023-03-01T14:06:09;21.77;;;13.32;;
54705;SDS011;40603;48.774;8.916;2023-03-01T14:08:37;28.08;;;13.88;;
54705;SDS011;40603;48.774;8.916;2023-03-01T14:11:17;28.65;;;15.27;;
54705;SDS011;40603;48.774;8.916;2023-03-01T14:19:34;24.42;;;13.85;;
54705;SDS011;40603;48.774;8.916;2023-03-01T14:22:02;25.58;;;14.23;;
54705;SDS011;40603;48.774;8.916;2023-03-01T14:24:37;24.63;;;13.57;;
54705;SDS011;40603;48.774;8.916;2023-03-01T14:27:08;26.35;;;13.52;;
54705;SDS011;40603;48.774;8.916;2023-03-01T14:29:37;28.85;;;14.68;;
54705;SDS011;40603;48.774;8.916;2023-03-01T14:32:19;24.80;;;13.77;;
54705;SDS011;40603;48.774;8.916;2023-03-01T14:34:47;24.33;;;13.57;;
54705;SDS011;40603;48.774;8.916;2023-03-01T14:37:21;23.27;;;13.55;;
54705;SDS011;40603;48.774;8.916;2023-03-01T14:39:50;26.42;;;14.43;;
54705;SDS011;40603;48.774;8.916;2023-03-01T14:42:17;28.73;;;12.95;;
54705;SDS011;40603;48.774;8.916;2023-03-01T14:44:45;28.02;;;13.48;;
54705;SDS011;40603;48.774;8.916;2023-03-01T14:47:14;23.92;;;14.00;;
54705;SDS011;40603;48.774;8.916;2023-03-01T14:49:41;30.40;;;14.65;;
54705;SDS011;40603;48.774;8.916;2023-03-01T14:52:07;26.13;;;14.40;;
54705;SDS011;40603;48.774;8.916;2023-03-01T14:54:44;25.85;;;14.25;;
54705;SDS011;40603;48.774;8.916;2023-03-01T14:57:15;25.00;;;13.80;;
54705;SDS011;40603;48.774;8.916;2023-03-01T14:59:49;27.83;;;13.35;;
54705;SDS011;40603;48.774;8.916;2023-03-01T15:02:18;25.95;;;14.05;;
54705;SDS011;40603;48.774;8.916;2023-03-01T15:04:45;23.05;;;13.32;;
54705;SDS011;40603;48.774;8.916;2023-03-01T15:07:12;28.17;;;13.50;;
54705;SDS011;40603;48.774;8.916;2023-03-01T15:09:38;26.88;;;13.25;;
54705;SDS011;40603;48.774;8.916;2023-03-01T15:14:50;24.65;;;13.85;;
54705;SDS011;40603;48.774;8.916;2023-03-01T15:17:22;21.38;;;12.95;;
54705;SDS011;40603;48.774;8.916;2023-03-01T15:19:53;31.33;;;14.23;;
54705;SDS011;40603;48.774;8.916;2023-03-01T15:22:18;22.08;;;12.55;;
54705;SDS011;40603;48.774;8.916;2023-03-01T15:24:48;23.65;;;13.52;;
54705;SDS011;40603;48.774;8.916;2023-03-01T15:27:18;22.88;;;13.57;;
54705;SDS011;40603;48.774;8.916;2023-03-01T15:29:53;21.83;;;13.45;;
54705;SDS011;40603;48.774;8.916;2023-03-01T15:34:50;22.20;;;13.13;;
54705;SDS011;40603;48.774;8.916;2023-03-01T15:39:59;21.23;;;13.07;;
54705;SDS011;40603;48.774;8.916;2023-03-01T15:47:40;25.23;;;13.05;;
54705;SDS011;40603;48.774;8.916;2023-03-01T15:50:11;26.55;;;15.10;;
54705;SDS011;40603;48.774;8.916;2023-03-01T15:52:41;20.92;;;12.82;;
54705;SDS011;40603;48.774;8.916;2023-03-01T15:55:25;27.42;;;13.85;;
54705;SDS011;40603;48.774;8.916;2023-03-01T15:58:14;23.60;;;13.98;;
54705;SDS011;40603;48.774;8.916;2023-03-01T16:00:41;22.13;;;13.43;;
54705;SDS011;40603;48.774;8.916;2023-03-01T16:03:07;26.27;;;14.25;;
54705;SDS011;40603;48.774;8.916;2023-03-01T16:05:35;27.55;;;13.75;;
54705;SDS011;40603;48.774;8.916;2023-03-01T16:08:01;25.90;;;14.20;;
54705;SDS011;40603;48.774;8.916;2023-03-01T16:10:27;23.45;;;13.77;;
54705;SDS011;40603;48.774;8.916;2023-03-01T16:12:52;24.95;;;13.15;;
54705;SDS011;40603;48.774;8.916;2023-03-01T16:15:20;32.03;;;15.93;;
54705;SDS011;40603;48.774;8.916;2023-03-01T16:17:47;24.77;;;13.32;;
54705;SDS011;40603;48.774;8.916;2023-03-01T16:20:13;25.30;;;13.68;;
54705;SDS011;40603;48.774;8.916;2023-03-01T16:22:41;24.00;;;13.57;;
54705;SDS011;40603;48.774;8.916;2023-03-01T16:25:08;31.73;;;13.60;;
54705;SDS011;40603;48.774;8.916;2023-03-01T16:27:35;24.40;;;12.77;;
54705;SDS011;40603;48.774;8.916;2023-03-01T16:30:00;27.20;;;13.18;;
54705;SDS011;40603;48.774;8.916;2023-03-01T16:32:25;23.42;;;13.70;;
54705;SDS011;40603;48.774;8.916;2023-03-01T16:34:50;25.50;;;13.93;;